Time;durP1;ratioP1;P1;durP2;ratioP2;P2;SDS_P1;SDS_P2;PMS_P1;PMS_P2;Temp;Humidity;BMP_temperature;BMP_pressure;BME280_temperature;BME280_humidity;BME280_pressure;Samples;Min_cycle;Max_cycle;Signal;HPM_P1;HPM_P2
2021/10/09 00:00:33;;;;;;;34.05;25.05;;;10.20;99.90;;;;;;5051886;28;20036;-76
2021/10/09 00:02:58;;;;;;;29.88;24.20;;;10.10;99.90;;;;;;5053920;28;20474;-76
2021/10/09 00:05:24;;;;;;;35.60;24.33;;;10.20;99.90;;;;;;5063151;28;20021;-76
2021/10/09 00:07:50;;;;;;;34.28;23.85;;;10.20;99.90;;;;;;5054078;28;20477;-76
2021/10/09 00:10:24;;;;;;;33.47;24.38;;;10.20;99.90;;;;;;5057384;28;20021;-76
2021/10/09 00:12:50;;;;;;;32.72;25.27;;;10.20;99.90;;;;;;5051346;28;20508;-76
2021/10/09 00:15:16;;;;;;;29.52;24.52;;;10.20;99.90;;;;;;5054054;28;20047;-77
2021/10/09 00:17:42;;;;;;;36.03;26.75;;;10.20;99.90;;;;;;5055100;28;20483;-77
2021/10/09 00:20:08;;;;;;;40.78;26.85;;;10.10;99.90;;;;;;5055466;28;20568;-76
2021/10/09 00:22:34;;;;;;;36.75;25.23;;;10.20;99.90;;;;;;5057796;28;20067;-78
2021/10/09 00:25:00;;;;;;;37.47;26.50;;;10.20;99.90;;;;;;5054852;28;20029;-77
2021/10/09 00:27:25;;;;;;;37.92;28.45;;;10.20;99.90;;;;;;5055451;28;20477;-76
2021/10/09 00:29:51;;;;;;;45.28;29.00;;;10.20;99.90;;;;;;5054960;28;20544;-77
2021/10/09 00:32:16;;;;;;;41.78;27.42;;;10.10;99.90;;;;;;5068490;28;20029;-77
2021/10/09 00:34:42;;;;;;;34.35;25.52;;;10.20;99.90;;;;;;5066747;28;20491;-77
2021/10/09 00:37:08;;;;;;;43.60;26.67;;;10.20;99.90;;;;;;5057258;28;20025;-77
2021/10/09 00:39:33;;;;;;;34.17;26.55;;;10.20;99.90;;;;;;5054520;28;20044;-77
2021/10/09 00:41:59;;;;;;;36.75;27.70;;;10.10;99.90;;;;;;5054957;28;20028;-76
2021/10/09 00:44:24;;;;;;;38.25;27.45;;;10.20;99.90;;;;;;5055110;28;20549;-75
2021/10/09 00:46:50;;;;;;;40.78;28.17;;;10.10;99.90;;;;;;5054058;28;20025;-75
2021/10/09 00:49:16;;;;;;;38.70;27.45;;;10.10;99.90;;;;;;5069091;28;20024;-77
2021/10/09 00:51:47;;;;;;;39.45;28.23;;;10.10;99.90;;;;;;5054732;28;20144;-77
2021/10/09 00:54:15;;;;;;;39.80;27.42;;;10.10;99.90;;;;;;5054271;28;20028;-77
2021/10/09 00:56:42;;;;;;;40.08;28.52;;;10.10;99.90;;;;;;5054961;28;20032;-77
2021/10/09 00:59:10;;;;;;;45.15;29.70;;;10.10;99.90;;;;;;5054079;28;20052;-77
2021/10/09 01:01:36;;;;;;;40.15;28.52;;;10.10;99.90;;;;;;5054126;28;20028;-76
2021/10/09 01:04:04;;;;;;;40.10;28.33;;;10.10;99.90;;;;;;5054437;28;20036;-77
2021/10/09 01:06:29;;;;;;;45.92;29.85;;;10.10;99.90;;;;;;5054590;28;20495;-77
2021/10/09 01:08:58;;;;;;;37.83;29.85;;;10.00;99.90;;;;;;5053691;28;20026;-77
2021/10/09 01:11:24;;;;;;;42.65;29.48;;;10.00;99.90;;;;;;5054513;28;20106;-77
2021/10/09 01:13:50;;;;;;;45.58;30.02;;;10.00;99.90;;;;;;5054411;28;20021;-76
2021/10/09 01:16:23;;;;;;;45.90;31.10;;;10.00;99.90;;;;;;5054011;28;20116;-77
2021/10/09 01:18:54;;;;;;;39.55;28.30;;;9.90;99.90;;;;;;5054227;28;20039;-76
2021/10/09 01:21:22;;;;;;;43.38;30.98;;;10.00;99.90;;;;;;5054527;28;20075;-77
2021/10/09 01:23:48;;;;;;;51.58;32.15;;;10.00;99.90;;;;;;5054509;28;20067;-75
2021/10/09 01:26:20;;;;;;;40.50;29.00;;;10.00;99.90;;;;;;5054076;28;20476;-74
2021/10/09 01:28:49;;;;;;;46.53;30.27;;;9.90;99.90;;;;;;5053190;28;20059;-76
2021/10/09 01:31:15;;;;;;;42.97;29.90;;;9.90;99.90;;;;;;5054468;28;20033;-75
2021/10/09 01:33:42;;;;;;;39.83;28.50;;;9.90;99.90;;;;;;5054437;28;20024;-75
2021/10/09 01:36:08;;;;;;;46.08;30.15;;;9.90;99.90;;;;;;5054004;28;20447;-76
2021/10/09 01:38:35;;;;;;;45.38;30.02;;;9.90;99.90;;;;;;5054126;28;20025;-76
2021/10/09 01:41:02;;;;;;;43.10;29.63;;;9.80;99.90;;;;;;5053801;28;20020;-75
2021/10/09 01:43:27;;;;;;;45.42;29.05;;;9.80;99.90;;;;;;5053337;28;20056;-76
2021/10/09 01:45:53;;;;;;;43.30;29.17;;;9.80;99.90;;;;;;5053782;28;20060;-77
2021/10/09 01:48:32;;;;;;;44.70;30.40;;;9.80;99.90;;;;;;5054103;28;20071;-76
2021/10/09 01:50:58;;;;;;;51.38;30.92;;;9.80;99.90;;;;;;5053068;28;20021;-76
2021/10/09 01:53:23;;;;;;;44.03;28.67;;;10.50;99.90;;;;;;5035133;28;20033;-75
2021/10/09 01:55:49;;;;;;;51.92;31.67;;;9.70;99.90;;;;;;5053590;28;20062;-76
2021/10/09 01:58:14;;;;;;;48.17;31.27;;;9.70;99.90;;;;;;5054069;28;20032;-76
2021/10/09 02:00:40;;;;;;;46.50;29.98;;;9.60;99.90;;;;;;5054244;28;20048;-75
2021/10/09 02:03:07;;;;;;;42.40;30.30;;;9.60;99.90;;;;;;5035456;28;20074;-76
2021/10/09 02:05:34;;;;;;;45.42;30.23;;;9.60;99.90;;;;;;5053566;28;20021;-76
2021/10/09 02:08:00;;;;;;;47.72;30.02;;;9.60;99.90;;;;;;5053407;28;20183;-76
2021/10/09 02:10:26;;;;;;;46.97;30.17;;;9.60;99.90;;;;;;5052649;28;20029;-75
2021/10/09 02:12:52;;;;;;;47.85;29.67;;;9.60;99.90;;;;;;5053069;28;20566;-75
2021/10/09 02:15:27;;;;;;;44.95;30.27;;;9.60;99.90;;;;;;5053560;28;20027;-75
2021/10/09 02:25:52;;;;;;;46.60;31.02;;;9.50;99.90;;;;;;5055643;28;20108;-75
2021/10/09 02:28:19;;;;;;;49.00;31.40;;;9.50;99.90;;;;;;5053127;28;20120;-75
2021/10/09 02:30:46;;;;;;;48.95;30.08;;;9.50;99.90;;;;;;5052499;28;20464;-75
2021/10/09 02:33:12;;;;;;;47.38;30.20;;;9.50;99.90;;;;;;5052287;28;20029;-75
2021/10/09 02:35:38;;;;;;;51.78;33.10;;;9.50;99.90;;;;;;5053094;28;20048;-76
2021/10/09 02:38:07;;;;;;;53.97;32.63;;;9.50;99.90;;;;;;5055066;28;20047;-75
2021/10/09 02:40:33;;;;;;;57.30;34.28;;;9.50;99.90;;;;;;5052577;28;20048;-75
2021/10/09 02:42:59;;;;;;;52.08;32.85;;;9.50;99.90;;;;;;5052876;28;20434;-75
2021/10/09 02:45:27;;;;;;;56.45;32.65;;;9.50;99.90;;;;;;5052210;28;20104;-76
2021/10/09 02:47:57;;;;;;;51.97;33.65;;;9.50;99.90;;;;;;5052057;28;20510;-75
2021/10/09 02:50:25;;;;;;;54.25;32.47;;;9.50;99.90;;;;;;5052564;28;20387;-75
2021/10/09 02:52:50;;;;;;;55.80;33.25;;;9.50;99.90;;;;;;5051720;28;20810;-76
2021/10/09 02:55:19;;;;;;;52.83;33.17;;;9.50;99.90;;;;;;5053087;28;20033;-75
2021/10/09 02:57:45;;;;;;;50.78;32.42;;;9.50;99.90;;;;;;5052653;28;20025;-75
2021/10/09 03:00:11;;;;;;;49.97;32.75;;;9.50;99.90;;;;;;5051633;28;20047;-75
2021/10/09 03:02:37;;;;;;;57.38;33.55;;;9.50;99.90;;;;;;5052676;28;20029;-79
2021/10/09 03:05:04;;;;;;;49.08;31.38;;;9.50;99.90;;;;;;5052313;28;20044;-77
2021/10/09 03:07:30;;;;;;;51.20;31.48;;;9.50;99.90;;;;;;5052035;28;20029;-77
2021/10/09 03:09:55;;;;;;;50.05;31.00;;;9.40;99.90;;;;;;5051973;28;20034;-77
2021/10/09 03:12:21;;;;;;;55.58;34.08;;;9.40;99.90;;;;;;5053757;28;20052;-78
2021/10/09 03:14:46;;;;;;;57.75;33.70;;;9.40;99.90;;;;;;5051996;28;20032;-76
2021/10/09 03:17:12;;;;;;;51.53;32.40;;;9.40;99.90;;;;;;5053603;28;20021;-75
2021/10/09 03:19:38;;;;;;;49.38;32.65;;;9.30;99.90;;;;;;5053559;28;20106;-77
2021/10/09 03:22:03;;;;;;;52.00;30.98;;;9.30;99.90;;;;;;5052752;28;20533;-77
2021/10/09 03:24:29;;;;;;;54.75;31.65;;;9.30;99.90;;;;;;5052276;28;20483;-77
2021/10/09 03:26:54;;;;;;;57.00;35.15;;;9.30;99.90;;;;;;5052517;28;20021;-78
2021/10/09 03:29:20;;;;;;;51.92;33.42;;;9.30;99.90;;;;;;5052378;28;20040;-76
2021/10/09 03:31:45;;;;;;;50.45;32.30;;;9.20;99.90;;;;;;5064650;28;20031;-76
2021/10/09 03:34:11;;;;;;;50.65;31.55;;;9.20;99.90;;;;;;5055020;28;20028;-77
2021/10/09 03:36:37;;;;;;;56.58;31.05;;;9.20;99.90;;;;;;5053379;28;20025;-76
2021/10/09 03:39:07;;;;;;;55.22;32.58;;;9.20;99.90;;;;;;5052115;28;20067;-77
2021/10/09 03:41:33;;;;;;;54.45;31.40;;;9.10;99.90;;;;;;5051922;28;20055;-77
2021/10/09 03:43:59;;;;;;;50.60;31.98;;;9.20;99.90;;;;;;5052031;28;20025;-77
2021/10/09 03:46:29;;;;;;;53.42;33.13;;;9.10;99.90;;;;;;5065257;28;20389;-77
2021/10/09 03:49:02;;;;;;;55.53;33.42;;;9.10;99.90;;;;;;5051306;28;20108;-77
2021/10/09 03:54:12;;;;;;;55.13;32.95;;;9.10;99.90;;;;;;5055876;28;20028;-76
2021/10/09 03:56:37;;;;;;;57.45;34.20;;;9.10;99.90;;;;;;5055321;28;20021;-77
2021/10/09 03:59:06;;;;;;;60.70;36.25;;;9.10;99.90;;;;;;5055925;28;20060;-77
2021/10/09 04:01:32;;;;;;;58.88;32.25;;;9.00;99.90;;;;;;5055953;28;20235;-77
2021/10/09 04:03:58;;;;;;;52.95;33.05;;;9.10;99.90;;;;;;5055638;28;20381;-76
2021/10/09 04:06:23;;;;;;;58.75;34.15;;;9.10;99.90;;;;;;5055926;28;20025;-77
2021/10/09 04:08:49;;;;;;;56.47;35.08;;;9.10;99.90;;;;;;5055170;28;20095;-76
2021/10/09 04:11:15;;;;;;;56.22;34.55;;;9.10;99.90;;;;;;5054701;28;20045;-76
2021/10/09 04:13:40;;;;;;;60.85;35.83;;;9.10;99.90;;;;;;5055672;28;20013;-77
2021/10/09 04:16:06;;;;;;;63.50;36.17;;;9.10;99.90;;;;;;5055192;28;20056;-76
2021/10/09 04:18:32;;;;;;;56.00;34.05;;;9.10;99.90;;;;;;5054912;28;20044;-77
2021/10/09 04:20:57;;;;;;;58.25;34.40;;;9.10;99.90;;;;;;5055313;28;20388;-77
2021/10/09 04:23:23;;;;;;;58.88;34.85;;;9.10;99.90;;;;;;5055142;28;20457;-76
2021/10/09 04:25:48;;;;;;;56.25;33.33;;;9.10;99.90;;;;;;5054387;28;20025;-75
2021/10/09 04:28:14;;;;;;;56.28;34.28;;;9.10;99.90;;;;;;5055607;28;20025;-76
2021/10/09 04:30:40;;;;;;;56.67;34.85;;;9.10;99.90;;;;;;5054964;28;20043;-76
2021/10/09 04:33:05;;;;;;;56.53;33.13;;;9.00;99.90;;;;;;5054592;28;20021;-76
2021/10/09 04:35:31;;;;;;;54.20;33.72;;;9.00;99.90;;;;;;5055100;28;20487;-75
2021/10/09 04:37:56;;;;;;;54.67;33.70;;;9.00;99.90;;;;;;5054527;28;20021;-75
2021/10/09 04:40:22;;;;;;;61.17;35.13;;;9.00;99.90;;;;;;5055166;28;20033;-75
2021/10/09 04:42:48;;;;;;;60.85;34.78;;;9.00;99.90;;;;;;5055358;28;20024;-76
2021/10/09 04:45:13;;;;;;;55.65;33.90;;;8.90;99.90;;;;;;5054648;28;20024;-76
2021/10/09 04:47:39;;;;;;;61.47;34.10;;;9.00;99.90;;;;;;5054964;28;20028;-75
2021/10/09 04:50:05;;;;;;;59.60;33.97;;;9.00;99.90;;;;;;5054771;28;20047;-75
2021/10/09 04:52:31;;;;;;;58.03;34.45;;;8.90;99.90;;;;;;5057387;28;20071;-76
2021/10/09 04:54:56;;;;;;;57.45;32.83;;;8.90;99.90;;;;;;5055015;28;20021;-75
2021/10/09 04:57:22;;;;;;;56.42;34.03;;;8.90;99.90;;;;;;5054957;28;20013;-76
2021/10/09 04:59:47;;;;;;;51.60;32.83;;;8.80;99.90;;;;;;5053104;28;20040;-76
2021/10/09 05:02:13;;;;;;;52.92;32.05;;;8.80;99.90;;;;;;5054856;28;20108;-76
2021/10/09 05:04:38;;;;;;;51.75;32.42;;;8.80;99.90;;;;;;5057816;28;20029;-76
2021/10/09 05:07:04;;;;;;;51.42;30.52;;;8.80;99.90;;;;;;5053727;28;20414;-76
2021/10/09 05:09:29;;;;;;;58.25;32.50;;;8.70;99.90;;;;;;5054821;28;20060;-76
2021/10/09 05:11:55;;;;;;;59.65;33.30;;;8.70;99.90;;;;;;5053888;28;20481;-76
2021/10/09 05:14:21;;;;;;;51.88;32.50;;;8.70;99.90;;;;;;5053831;28;20025;-76
2021/10/09 05:16:46;;;;;;;59.85;32.60;;;8.70;99.90;;;;;;5054257;28;20503;-76
2021/10/09 05:19:12;;;;;;;56.70;34.25;;;8.70;99.90;;;;;;5054890;28;20025;-76
2021/10/09 05:21:37;;;;;;;59.15;33.78;;;8.70;99.90;;;;;;5053791;28;20025;-77
2021/10/09 05:24:03;;;;;;;55.17;31.95;;;8.70;99.90;;;;;;5058822;28;20016;-76
2021/10/09 05:26:29;;;;;;;56.20;33.75;;;8.60;99.90;;;;;;5063568;28;20125;-75
2021/10/09 05:28:55;;;;;;;58.85;33.30;;;8.60;99.90;;;;;;5053780;28;20455;-77
2021/10/09 05:31:30;;;;;;;52.88;32.55;;;8.60;99.90;;;;;;5054424;28;20025;-75
2021/10/09 05:33:56;;;;;;;50.42;32.20;;;8.60;99.90;;;;;;5053952;28;20105;-76
2021/10/09 05:36:23;;;;;;;60.13;33.42;;;8.60;99.90;;;;;;5053645;28;20079;-75
2021/10/09 05:38:50;;;;;;;47.08;30.73;;;8.50;99.90;;;;;;5053451;28;20037;-75
2021/10/09 05:41:15;;;;;;;52.88;32.05;;;8.50;99.90;;;;;;5053455;28;20060;-75
2021/10/09 05:43:41;;;;;;;49.70;31.65;;;8.40;99.90;;;;;;5053975;28;20056;-77
2021/10/09 05:46:07;;;;;;;49.20;30.45;;;8.50;99.90;;;;;;5053662;28;20044;-76
2021/10/09 05:48:35;;;;;;;51.67;30.50;;;8.50;99.90;;;;;;5053097;28;20560;-75
2021/10/09 05:53:57;;;;;;;50.28;30.58;;;8.40;99.90;;;;;;5053914;28;20028;-76
2021/10/09 06:32:22;;;;;;;65.18;35.22;;;8.70;99.90;;;;;;5051893;28;20071;-77
2021/10/09 06:45:30;;;;;;;66.57;37.63;;;8.80;99.90;;;;;;5051072;28;20481;-76
2021/10/09 07:01:36;;;;;;;73.28;38.25;;;9.10;99.90;;;;;;5051204;28;20082;-77
2021/10/09 07:04:01;;;;;;;68.85;37.97;;;9.10;99.90;;;;;;5051842;28;20440;-76
2021/10/09 07:06:27;;;;;;;66.40;38.35;;;9.10;99.90;;;;;;5051764;28;20064;-76
2021/10/09 07:08:52;;;;;;;70.20;38.55;;;9.20;99.90;;;;;;5051761;28;20358;-76
2021/10/09 07:11:18;;;;;;;65.82;37.40;;;9.20;99.90;;;;;;5051906;28;20543;-76
2021/10/09 07:13:43;;;;;;;65.70;37.28;;;9.20;99.90;;;;;;5051325;28;20056;-77
2021/10/09 07:16:09;;;;;;;66.32;38.10;;;9.30;99.90;;;;;;5052276;28;20021;-75
2021/10/09 07:18:35;;;;;;;64.63;37.45;;;9.30;99.90;;;;;;5055400;28;20052;-76
2021/10/09 07:21:01;;;;;;;66.30;38.25;;;9.40;99.90;;;;;;5052458;28;20033;-77
2021/10/09 07:23:27;;;;;;;66.22;38.63;;;9.40;99.90;;;;;;5053573;28;20473;-78
2021/10/09 07:25:52;;;;;;;66.97;36.92;;;9.50;99.90;;;;;;5053201;28;20029;-75
2021/10/09 07:28:18;;;;;;;71.13;39.33;;;9.50;99.90;;;;;;5051950;28;20021;-75
2021/10/09 07:30:44;;;;;;;68.90;38.22;;;9.60;99.90;;;;;;5041118;28;20429;-74
2021/10/09 07:33:11;;;;;;;62.80;37.70;;;9.60;99.90;;;;;;5052404;28;20063;-78
2021/10/09 07:35:36;;;;;;;64.95;37.75;;;9.60;99.90;;;;;;5053053;28;20032;-77
2021/10/09 07:38:02;;;;;;;64.47;36.58;;;9.70;99.90;;;;;;5053140;28;20017;-77
2021/10/09 07:40:28;;;;;;;59.00;37.03;;;9.70;99.90;;;;;;5054937;28;20043;-77
2021/10/09 07:42:53;;;;;;;62.58;38.38;;;9.80;99.90;;;;;;5051072;28;20075;-77
2021/10/09 07:45:19;;;;;;;65.03;38.03;;;9.80;99.90;;;;;;5052220;28;20029;-77
2021/10/09 07:47:44;;;;;;;70.75;38.60;;;9.90;99.90;;;;;;5051172;28;20381;-76
2021/10/09 07:50:11;;;;;;;63.75;36.53;;;9.90;99.90;;;;;;5051578;28;20030;-76
2021/10/09 07:52:37;;;;;;;63.22;36.90;;;10.00;99.90;;;;;;5051139;28;20032;-77
2021/10/09 07:55:04;;;;;;;65.55;38.92;;;10.00;99.90;;;;;;5050354;28;20024;-76
2021/10/09 07:57:29;;;;;;;56.95;34.17;;;10.10;99.90;;;;;;5050952;28;20036;-75
2021/10/09 07:59:55;;;;;;;68.03;39.58;;;10.10;99.90;;;;;;5050760;28;20040;-76
2021/10/09 08:02:20;;;;;;;73.38;40.35;;;10.20;99.90;;;;;;5050399;28;20104;-76
2021/10/09 08:04:46;;;;;;;64.68;38.22;;;10.20;99.90;;;;;;5050708;28;20519;-76
2021/10/09 08:07:11;;;;;;;68.70;39.28;;;10.30;99.90;;;;;;5051538;28;20021;-76
2021/10/09 08:09:37;;;;;;;63.55;38.80;;;10.30;99.90;;;;;;5051314;28;20471;-76
2021/10/09 08:12:03;;;;;;;68.35;38.47;;;10.40;99.90;;;;;;5051178;28;20041;-77
2021/10/09 08:14:29;;;;;;;71.25;39.13;;;10.40;99.90;;;;;;5051659;28;20120;-76
2021/10/09 08:16:55;;;;;;;62.63;36.95;;;10.50;99.90;;;;;;5050465;28;20108;-76
2021/10/09 08:19:20;;;;;;;64.30;38.58;;;10.50;99.90;;;;;;5051478;28;20121;-76
2021/10/09 08:21:46;;;;;;;59.65;36.85;;;10.60;99.90;;;;;;5051233;28;20024;-77
2021/10/09 08:24:28;;;;;;;67.30;40.45;;;10.60;99.90;;;;;;5051075;28;20029;-76
2021/10/09 08:27:12;;;;;;;64.03;38.65;;;10.70;99.90;;;;;;5051337;28;20056;-77
2021/10/09 08:40:34;;;;;;;56.42;35.70;;;11.00;99.90;;;;;;5055173;28;20155;-75
2021/10/09 08:42:59;;;;;;;64.97;37.88;;;11.00;99.90;;;;;;5054931;28;20025;-78
2021/10/09 08:45:25;;;;;;;64.50;37.17;;;11.10;99.90;;;;;;5054483;28;20396;-77
2021/10/09 08:47:50;;;;;;;62.58;36.80;;;11.20;99.90;;;;;;5054589;28;20021;-75
2021/10/09 08:50:16;;;;;;;66.03;38.70;;;11.30;99.90;;;;;;5054624;28;20431;-77
2021/10/09 08:53:00;;;;;;;63.67;39.55;;;11.30;99.90;;;;;;5054267;28;20025;-76
2021/10/09 08:55:27;;;;;;;60.75;36.92;;;11.30;99.90;;;;;;5054798;28;20028;-77
2021/10/09 08:57:57;;;;;;;54.38;35.67;;;11.40;99.90;;;;;;5054280;28;20024;-77
2021/10/09 09:00:58;;;;;;;67.60;38.27;;;11.40;99.90;;;;;;5053952;28;20558;-76
2021/10/09 09:03:32;;;;;;;54.25;36.10;;;11.50;99.90;;;;;;5054838;28;20025;-77
2021/10/09 09:06:25;;;;;;;58.80;37.50;;;11.60;99.90;;;;;;5053751;28;20489;-77
2021/10/09 09:25:29;;;;;;;54.33;35.40;;;11.80;99.90;;;;;;5052057;28;20500;-81
2021/10/09 09:31:26;;;;;;;53.85;35.40;;;12.20;99.90;;;;;;5041498;28;20064;-81
2021/10/09 09:34:05;;;;;;;58.75;35.63;;;12.20;99.90;;;;;;5040807;28;20041;-80
2021/10/09 09:39:07;;;;;;;60.10;35.33;;;12.40;99.90;;;;;;5041903;28;20045;-81
2021/10/09 09:41:50;;;;;;;53.10;33.85;;;12.50;99.90;;;;;;5067798;28;20064;-80
2021/10/09 09:44:18;;;;;;;56.53;33.97;;;12.60;99.90;;;;;;5067638;28;20071;-82
2021/10/09 09:47:02;;;;;;;52.15;33.83;;;12.70;99.90;;;;;;5056203;28;20018;-82
2021/10/09 09:49:29;;;;;;;51.72;33.38;;;12.70;99.90;;;;;;5055570;28;20407;-82
2021/10/09 09:51:55;;;;;;;57.42;35.53;;;12.70;99.90;;;;;;5056876;28;20025;-82
2021/10/09 09:54:26;;;;;;;53.83;35.30;;;12.80;99.90;;;;;;5054820;28;20094;-84
2021/10/09 09:56:57;;;;;;;53.63;35.42;;;12.80;99.90;;;;;;5057654;28;20035;-82
2021/10/09 09:59:29;;;;;;;52.80;33.63;;;12.80;99.90;;;;;;5059237;28;20037;-81
2021/10/09 10:01:55;;;;;;;48.47;33.13;;;12.90;99.90;;;;;;5053510;28;20021;-77
2021/10/09 10:04:22;;;;;;;53.83;32.90;;;12.90;99.90;;;;;;5054582;28;20129;-76
2021/10/09 10:06:47;;;;;;;67.32;36.90;;;13.00;99.90;;;;;;5053490;28;20116;-79
2021/10/09 10:09:13;;;;;;;60.88;35.70;;;13.00;99.90;;;;;;5053392;28;20131;-80
2021/10/09 10:11:40;;;;;;;54.20;33.33;;;13.00;99.90;;;;;;5067553;28;20094;-80
2021/10/09 10:14:06;;;;;;;60.22;35.78;;;13.10;99.90;;;;;;5053521;28;20073;-79
2021/10/09 10:16:32;;;;;;;54.40;35.03;;;13.10;99.90;;;;;;5052982;28;20100;-81
2021/10/09 10:18:58;;;;;;;56.60;33.97;;;13.20;99.90;;;;;;5052954;28;20025;-81
2021/10/09 10:21:41;;;;;;;47.25;33.08;;;13.20;99.90;;;;;;5064271;28;20036;-79
2021/10/09 10:24:12;;;;;;;50.65;33.38;;;13.30;99.90;;;;;;5067019;28;20040;-79
2021/10/09 10:26:37;;;;;;;51.65;34.88;;;13.30;99.90;;;;;;5053295;28;20052;-79
2021/10/09 10:29:03;;;;;;;52.28;34.60;;;13.30;99.90;;;;;;5052709;28;20045;-80
2021/10/09 10:31:30;;;;;;;52.92;35.15;;;13.30;99.90;;;;;;5050492;28;20036;-79
2021/10/09 10:34:21;;;;;;;54.60;34.97;;;13.40;99.90;;;;;;5051505;28;20078;-80
2021/10/09 10:36:47;;;;;;;52.55;35.15;;;13.50;99.90;;;;;;5051905;28;20025;-79
2021/10/09 10:39:17;;;;;;;55.97;35.15;;;13.60;99.90;;;;;;5050491;28;20052;-79
2021/10/09 10:41:58;;;;;;;51.40;33.55;;;13.60;99.90;;;;;;5052772;28;20029;-79
2021/10/09 10:44:42;;;;;;;;;;;13.60;99.90;;;;;;5050961;28;20029;-77
2021/10/09 10:47:42;;;;;;;46.47;32.75;;;13.70;99.90;;;;;;5052405;28;20316;-78
2021/10/09 10:53:33;;;;;;;49.70;33.03;;;13.70;99.90;;;;;;5042083;28;20813;-80
2021/10/09 10:56:08;;;;;;;45.00;32.13;;;13.80;99.90;;;;;;5052562;28;20435;-81
2021/10/09 10:58:34;;;;;;;44.83;31.17;;;13.80;99.90;;;;;;5051412;28;20473;-79
2021/10/09 11:01:19;;;;;;;48.70;33.28;;;13.90;99.90;;;;;;5037783;28;20033;-78
2021/10/09 11:03:53;;;;;;;47.80;33.03;;;13.90;99.90;;;;;;5048553;28;20021;-79
2021/10/09 11:06:20;;;;;;;55.70;33.60;;;14.00;99.90;;;;;;5052467;28;20025;-78
2021/10/09 11:08:47;;;;;;;48.97;33.35;;;14.00;99.90;;;;;;5047055;28;20381;-81
2021/10/09 11:11:13;;;;;;;53.28;34.30;;;14.00;99.90;;;;;;5034835;28;20054;-79
2021/10/09 11:13:43;;;;;;;48.38;33.42;;;14.00;99.90;;;;;;5049463;28;20051;-80
2021/10/09 11:16:09;;;;;;;50.72;32.90;;;14.10;99.90;;;;;;5052683;28;20151;-81
2021/10/09 11:18:51;;;;;;;54.75;33.08;;;14.10;99.90;;;;;;5052365;28;20120;-80
2021/10/09 11:21:18;;;;;;;52.65;31.90;;;14.20;99.90;;;;;;5043197;28;20083;-80
2021/10/09 11:23:49;;;;;;;47.58;33.50;;;14.20;99.90;;;;;;5051091;28;20028;-80
2021/10/09 11:26:14;;;;;;;41.97;30.70;;;14.30;99.90;;;;;;5033360;28;20041;-82
2021/10/09 11:28:42;;;;;;;42.22;28.63;;;14.40;99.90;;;;;;5038721;28;20029;-80
2021/10/09 11:31:07;;;;;;;46.53;31.83;;;14.50;99.90;;;;;;5041493;28;20472;-82
2021/10/09 11:33:33;;;;;;;45.05;30.33;;;14.50;99.90;;;;;;5051133;28;20049;-78
2021/10/09 11:36:01;;;;;;;48.00;30.98;;;14.50;99.90;;;;;;5050536;28;20465;-79
2021/10/09 11:38:32;;;;;;;49.55;30.58;;;14.60;99.90;;;;;;5050976;28;20032;-80
2021/10/09 11:41:07;;;;;;;;;;;14.70;99.90;;;;;;5050354;28;20052;-81
2021/10/09 11:43:50;;;;;;;47.78;31.63;;;14.70;99.90;;;;;;5046933;28;20376;-79
2021/10/09 11:53:29;;;;;;;47.70;30.08;;;14.80;99.90;;;;;;5051405;28;20083;-81
2021/10/09 11:55:27;;;;;;;45.00;29.73;;;14.90;99.90;;;;;;5047760;28;20523;-80
2021/10/09 11:57:54;;;;;;;39.88;27.75;;;15.00;99.90;;;;;;5051560;28;20117;-80
2021/10/09 12:00:29;;;;;;;43.15;29.15;;;15.00;99.90;;;;;;5051444;28;20037;-80
2021/10/09 12:02:55;;;;;;;43.47;28.67;;;15.00;99.90;;;;;;5050893;28;20040;-80
2021/10/09 12:05:21;;;;;;;42.47;30.58;;;15.10;99.90;;;;;;5051683;28;20037;-80
2021/10/09 12:08:17;;;;;;;41.47;29.23;;;15.20;99.90;;;;;;5050613;28;20045;-79
2021/10/09 12:11:22;;;;;;;43.38;29.50;;;15.20;99.90;;;;;;5052913;28;20108;-78
2021/10/09 12:14:13;;;;;;;45.28;29.00;;;15.30;99.90;;;;;;5053792;28;20037;-80
2021/10/09 12:16:46;;;;;;;44.63;28.58;;;15.30;99.90;;;;;;5052120;28;20040;-80
2021/10/09 12:19:15;;;;;;;41.08;28.15;;;15.30;99.90;;;;;;5055724;28;20033;-79
2021/10/09 12:22:02;;;;;;;37.08;27.45;;;15.40;99.90;;;;;;5055191;28;20182;-79
2021/10/09 12:24:44;;;;;;;43.67;29.95;;;15.50;99.90;;;;;;5056427;28;20044;-82
2021/10/09 12:27:17;;;;;;;39.42;27.23;;;15.60;99.90;;;;;;5055732;28;20472;-80
2021/10/09 12:30:09;;;;;;;41.08;30.45;;;15.50;99.90;;;;;;5054806;28;20021;-79
2021/10/09 12:32:49;;;;;;;38.30;26.05;;;15.60;99.90;;;;;;5055352;28;20029;-80
2021/10/09 12:35:23;;;;;;;42.30;26.13;;;15.60;99.90;;;;;;5055212;28;20103;-79
2021/10/09 12:37:59;;;;;;;46.03;27.27;;;15.60;99.90;;;;;;5046839;28;20489;-81
2021/10/09 12:40:27;;;;;;;41.75;27.58;;;15.70;99.90;;;;;;5045092;28;20393;-82
2021/10/09 12:42:58;;;;;;;39.58;28.42;;;15.70;99.90;;;;;;5041389;28;20083;-82
2021/10/09 12:45:25;;;;;;;;;;;15.80;99.90;;;;;;5036384;28;20026;-81
2021/10/09 12:47:51;;;;;;;43.10;26.60;;;15.80;99.90;;;;;;5042801;28;20003;-82
2021/10/09 12:50:18;;;;;;;40.95;25.98;;;15.90;99.90;;;;;;5041742;28;21240;-82
2021/10/09 12:52:44;;;;;;;35.45;26.42;;;15.90;99.90;;;;;;5052642;28;20025;-81
2021/10/09 12:55:10;;;;;;;40.53;27.17;;;15.90;99.90;;;;;;5061984;28;20025;-83
2021/10/09 12:57:46;;;;;;;41.70;26.75;;;15.90;99.90;;;;;;5058986;28;20104;-84
2021/10/09 13:00:12;;;;;;;35.55;27.05;;;16.10;99.90;;;;;;5053575;28;20044;-84
2021/10/09 13:02:37;;;;;;;40.53;27.10;;;16.10;99.90;;;;;;5070014;28;20021;-84
2021/10/09 13:05:03;;;;;;;34.95;25.27;;;16.10;99.90;;;;;;5055976;28;20024;-85
2021/10/09 13:07:29;;;;;;;40.72;27.50;;;16.20;99.90;;;;;;5052009;28;20040;-84
2021/10/09 13:09:54;;;;;;;40.47;24.98;;;16.20;99.90;;;;;;5053315;28;20075;-84
2021/10/09 13:12:20;;;;;;;39.03;26.23;;;16.20;99.90;;;;;;5056724;28;20095;-84
2021/10/09 13:14:45;;;;;;;34.10;24.38;;;16.20;99.90;;;;;;5057785;28;20587;-84
2021/10/09 13:17:11;;;;;;;37.78;26.50;;;16.30;99.90;;;;;;5063567;28;20060;-86
2021/10/09 13:19:36;;;;;;;41.17;26.08;;;16.30;99.90;;;;;;5063410;28;20052;-84
2021/10/09 13:22:02;;;;;;;36.03;26.23;;;16.30;99.90;;;;;;5056189;28;20025;-83
2021/10/09 13:24:27;;;;;;;37.33;24.48;;;16.30;99.90;;;;;;5055965;28;20412;-83
2021/10/09 13:26:53;;;;;;;41.22;26.33;;;16.30;99.90;;;;;;5044434;28;20440;-84
2021/10/09 13:29:19;;;;;;;38.75;25.92;;;16.30;99.90;;;;;;5055001;28;20029;-85
2021/10/09 13:31:44;;;;;;;36.13;26.20;;;16.40;99.90;;;;;;5051145;28;20029;-85
2021/10/09 13:34:11;;;;;;;36.15;25.40;;;16.40;99.90;;;;;;5055298;28;20029;-84
2021/10/09 13:36:37;;;;;;;39.45;26.15;;;16.40;99.90;;;;;;5057513;28;20039;-85
2021/10/09 13:39:03;;;;;;;38.30;26.33;;;16.60;99.90;;;;;;5057006;28;20017;-84
2021/10/09 13:41:29;;;;;;;36.65;24.75;;;16.60;99.90;;;;;;5058519;28;20029;-85
2021/10/09 13:43:54;;;;;;;35.65;26.02;;;16.60;99.90;;;;;;5059944;28;20032;-85
2021/10/09 13:46:27;;;;;;;41.20;27.48;;;16.60;99.90;;;;;;5058177;28;20048;-83
2021/10/09 13:48:53;;;;;;;37.83;26.50;;;16.70;99.90;;;;;;5056497;28;20057;-84
2021/10/09 13:51:18;;;;;;;43.42;25.38;;;16.70;99.90;;;;;;5053547;28;20071;-83
2021/10/09 13:53:44;;;;;;;35.38;24.75;;;16.80;99.90;;;;;;5062634;28;20080;-85
2021/10/09 13:56:11;;;;;;;38.42;25.65;;;16.80;99.90;;;;;;5054628;28;20102;-77
2021/10/09 13:58:36;;;;;;;36.88;24.80;;;16.80;99.90;;;;;;5053076;28;20120;-77
2021/10/09 14:01:02;;;;;;;37.13;25.08;;;16.80;99.90;;;;;;5052181;28;20123;-76
2021/10/09 14:03:31;;;;;;;36.95;25.73;;;16.80;99.90;;;;;;5053560;28;20021;-77
2021/10/09 14:05:57;;;;;;;34.75;24.75;;;16.80;99.90;;;;;;5053249;28;20028;-76
2021/10/09 14:08:22;;;;;;;34.28;25.17;;;16.80;99.90;;;;;;5052848;28;20071;-77
2021/10/09 14:10:48;;;;;;;39.97;25.98;;;16.90;99.90;;;;;;5053033;28;20025;-75
2021/10/09 14:13:13;;;;;;;37.95;25.30;;;16.90;99.90;;;;;;5053446;28;20060;-76
2021/10/09 14:15:39;;;;;;;35.30;24.20;;;16.90;99.90;;;;;;5053229;28;20547;-76
2021/10/09 14:18:05;;;;;;;36.38;25.10;;;17.00;99.90;;;;;;5053231;28;20021;-76
2021/10/09 14:20:31;;;;;;;35.90;25.60;;;17.00;99.90;;;;;;5053007;28;20108;-76
2021/10/09 14:22:58;;;;;;;34.72;24.25;;;17.10;99.90;;;;;;5051556;28;20021;-76
2021/10/09 14:25:31;;;;;;;41.72;25.83;;;17.00;99.90;;;;;;5052878;28;20465;-76
2021/10/09 14:28:01;;;;;;;37.60;26.35;;;17.10;99.90;;;;;;5041467;28;20070;-75
2021/10/09 14:30:27;;;;;;;33.13;23.90;;;17.10;99.90;;;;;;5052397;28;20541;-77
2021/10/09 14:32:52;;;;;;;34.92;25.67;;;17.20;99.90;;;;;;5052120;28;20021;-77
2021/10/09 14:35:18;;;;;;;32.65;23.83;;;17.20;99.90;;;;;;5051997;28;20488;-77